Time;durP1;ratioP1;P1;durP2;ratioP2;P2;SDS_P1;SDS_P2;PMS_P1;PMS_P2;Temp;Humidity;BMP_temperature;BMP_pressure;BME280_temperature;BME280_humidity;BME280_pressure;Samples;Min_cycle;Max_cycle;Signal;HPM_P1;HPM_P2
2023/01/08 00:00:08;;;;;;;;;;;;;;;;;;1031790;28;19917;-78
2023/01/08 00:00:38;;;;;;;;;;;;;;;;;;1032020;28;19920;-76
2023/01/08 00:01:09;;;;;;;;;;;;;;;;;;1031864;28;19921;-76
2023/01/08 00:01:40;;;;;;;;;;;;;;;;;;1035925;28;19913;-77
2023/01/08 00:02:11;;;;;;;;;;;;;;;;;;1031601;28;20368;-76
2023/01/08 00:02:42;;;;;;;;;;;;;;;;;;1031839;28;19914;-77
2023/01/08 00:03:13;;;;;;;;;;;;;;;;;;1027659;28;19921;-77
2023/01/08 00:03:44;;;;;;;;;;;;;;;;;;1028048;28;19910;-77
2023/01/08 00:04:16;;;;;;;;;;;;;;;;;;1031877;28;19914;-77
2023/01/08 00:04:47;;;;;;;;;;;;;;;;;;1031855;28;20000;-77
2023/01/08 00:05:18;;;;;;;;;;;;;;;;;;1032056;28;19910;-77
2023/01/08 00:05:49;;;;;;;;;;;;;;;;;;1031772;28;20428;-77
2023/01/08 00:06:20;;;;;;;;;;;;;;;;;;1031539;28;19922;-77
2023/01/08 00:06:53;;;;;;;;;;;;;;;;;;1031926;28;19917;-76
2023/01/08 00:07:23;;;;;;;;;;;;;;;;;;1031819;28;19910;-77
2023/01/08 00:07:54;;;;;;;;;;;;;;;;;;1032287;28;19984;-76
2023/01/08 00:08:25;;;;;;;;;;;;;;;;;;1035257;28;19936;-77
2023/01/08 00:08:56;;;;;;;;;;;;;;;;;;1032029;28;20000;-77
2023/01/08 00:09:27;;;;;;;;;;;;;;;;;;1035947;28;19964;-77
2023/01/08 00:09:58;;;;;;;;;;;;;;;;;;1035657;28;19957;-77
2023/01/08 00:10:29;;;;;;;;;;;;;;;;;;1031572;28;19936;-77
2023/01/08 00:10:59;;;;;;;;;;;;;;;;;;1031328;28;20012;-77
2023/01/08 00:11:30;;;;;;;;;;;;;;;;;;1027981;28;19914;-78
2023/01/08 00:12:01;;;;;;;;;;;;;;;;;;1032114;28;20005;-77
2023/01/08 00:12:33;;;;;;;;;;;;;;;;;;1031996;28;19914;-78
2023/01/08 00:13:04;;;;;;;;;;;;;;;;;;1029002;28;20322;-77
2023/01/08 00:13:35;;;;;;;;;;;;;;;;;;1027894;28;20362;-77
2023/01/08 00:14:06;;;;;;;;;;;;;;;;;;1028082;28;19993;-78
2023/01/08 00:14:36;;;;;;;;;;;;;;;;;;1032041;28;20439;-77
2023/01/08 00:15:07;;;;;;;;;;;;;;;;;;1031091;28;19917;-77
2023/01/08 00:15:38;;;;;;;;;;;;;;;;;;1031976;28;19948;-77
2023/01/08 00:16:09;;;;;;;;;;;;;;;;;;1031732;28;19910;-78
2023/01/08 00:16:40;;;;;;;;;;;;;;;;;;1032001;28;19920;-76
2023/01/08 00:17:11;;;;;;;;;;;;;;;;;;1031803;28;19937;-77
2023/01/08 00:17:42;;;;;;;;;;;;;;;;;;1031777;28;19960;-77
2023/01/08 00:18:13;;;;;;;;;;;;;;;;;;1027880;28;19915;-77
2023/01/08 00:18:44;;;;;;;;;;;;;;;;;;1031948;28;19937;-77
2023/01/08 00:19:14;;;;;;;;;;;;;;;;;;1027637;28;20465;-77
2023/01/08 00:19:45;;;;;;;;;;;;;;;;;;1028325;28;19961;-78
2023/01/08 00:20:16;;;;;;;;;;;;;;;;;;1031619;28;20280;-77
2023/01/08 00:20:47;;;;;;;;;;;;;;;;;;1027879;28;19949;-77
2023/01/08 00:21:19;;;;;;;;;;;;;;;;;;1031838;28;20444;-77
2023/01/08 00:21:50;;;;;;;;;;;;;;;;;;1031476;28;19914;-77
2023/01/08 00:22:21;;;;;;;;;;;;;;;;;;1028408;28;19914;-77
2023/01/08 00:22:52;;;;;;;;;;;;;;;;;;1027708;28;20621;-77
2023/01/08 00:23:22;;;;;;;;;;;;;;;;;;1027638;28;19914;-77
2023/01/08 00:23:53;;;;;;;;;;;;;;;;;;1027754;28;19937;-77
2023/01/08 00:24:24;;;;;;;;;;;;;;;;;;1032120;28;19914;-77
2023/01/08 00:24:55;;;;;;;;;;;;;;;;;;1036202;28;19909;-77
2023/01/08 00:25:26;;;;;;;;;;;;;;;;;;1035412;28;19921;-78
2023/01/08 00:25:57;;;;;;;;;;;;;;;;;;1031623;28;19914;-78
2023/01/08 00:26:28;;;;;;;;;;;;;;;;;;1031677;28;20000;-77
2023/01/08 00:26:58;;;;;;;;;;;;;;;;;;1027430;28;19922;-77
2023/01/08 00:27:29;;;;;;;;;;;;;;;;;;1027996;28;19914;-77
2023/01/08 00:28:00;;;;;;;;;;;;;;;;;;1027320;28;20463;-78
2023/01/08 00:28:31;;;;;;;;;;;;;;;;;;1027586;28;19921;-77
2023/01/08 00:29:02;;;;;;;;;;;;;;;;;;1031669;28;20411;-77
2023/01/08 00:29:33;;;;;;;;;;;;;;;;;;1031668;28;19913;-78
2023/01/08 00:30:04;;;;;;;;;;;;;;;;;;1031568;28;20384;-78
2023/01/08 00:30:34;;;;;;;;;;;;;;;;;;1023851;28;19918;-77
2023/01/08 00:31:05;;;;;;;;;;;;;;;;;;1027732;28;19914;-78
2023/01/08 00:31:36;;;;;;;;;;;;;;;;;;1027475;28;20004;-78
2023/01/08 00:32:07;;;;;;;;;;;;;;;;;;1026337;28;19921;-77
2023/01/08 00:32:38;;;;;;;;;;;;;;;;;;1027788;28;19997;-77
2023/01/08 00:33:09;;;;;;;;;;;;;;;;;;1027850;28;19921;-78
2023/01/08 00:33:40;;;;;;;;;;;;;;;;;;1027660;28;19918;-77
2023/01/08 00:34:10;;;;;;;;;;;;;;;;;;1023652;28;20289;-77
2023/01/08 00:34:41;;;;;;;;;;;;;;;;;;1023616;28;19922;-77
2023/01/08 00:35:12;;;;;;;;;;;;;;;;;;1023593;28;20278;-77
2023/01/08 00:35:43;;;;;;;;;;;;;;;;;;1027850;28;19920;-77
2023/01/08 00:36:14;;;;;;;;;;;;;;;;;;1027636;28;20359;-77
2023/01/08 00:36:45;;;;;;;;;;;;;;;;;;1031552;28;19917;-77
2023/01/08 00:37:18;;;;;;;;;;;;;;;;;;1027671;28;20017;-78
2023/01/08 00:37:49;;;;;;;;;;;;;;;;;;1032339;28;19914;-77
2023/01/08 00:38:20;;;;;;;;;;;;;;;;;;1035137;28;19914;-77
2023/01/08 00:38:51;;;;;;;;;;;;;;;;;;1031997;28;19929;-78
2023/01/08 00:39:22;;;;;;;;;;;;;;;;;;1032041;28;19917;-77
2023/01/08 00:39:53;;;;;;;;;;;;;;;;;;1031846;28;20576;-77
2023/01/08 00:40:24;;;;;;;;;;;;;;;;;;1031646;28;20016;-77
2023/01/08 00:40:54;;;;;;;;;;;;;;;;;;1031515;28;20590;-78
2023/01/08 00:41:25;;;;;;;;;;;;;;;;;;1031823;28;19918;-77
2023/01/08 00:41:56;;;;;;;;;;;;;;;;;;1031925;28;20056;-77
2023/01/08 00:42:27;;;;;;;;;;;;;;;;;;1031812;28;19933;-77
2023/01/08 00:42:58;;;;;;;;;;;;;;;;;;1032057;28;19972;-78
2023/01/08 00:43:29;;;;;;;;;;;;;;;;;;1032124;28;19913;-77
2023/01/08 00:44:00;;;;;;;;;;;;;;;;;;1031821;28;19914;-77
2023/01/08 00:44:31;;;;;;;;;;;;;;;;;;1032187;28;19910;-77
2023/01/08 00:45:01;;;;;;;;;;;;;;;;;;1031817;28;20714;-77
2023/01/08 00:45:32;;;;;;;;;;;;;;;;;;1032058;28;19914;-77
2023/01/08 00:46:03;;;;;;;;;;;;;;;;;;1031886;28;20308;-77
2023/01/08 00:46:34;;;;;;;;;;;;;;;;;;1031955;28;19914;-78
2023/01/08 00:47:05;;;;;;;;;;;;;;;;;;1031442;28;20744;-77
2023/01/08 00:47:36;;;;;;;;;;;;;;;;;;1031940;28;19909;-78
2023/01/08 00:48:07;;;;;;;;;;;;;;;;;;1031331;28;20022;-78
2023/01/08 00:48:38;;;;;;;;;;;;;;;;;;1031794;28;19941;-77
2023/01/08 00:49:08;;;;;;;;;;;;;;;;;;1031554;28;20020;-77
2023/01/08 00:49:39;;;;;;;;;;;;;;;;;;1031774;28;19917;-78
2023/01/08 00:50:10;;;;;;;;;;;;;;;;;;1027612;28;20731;-77
2023/01/08 00:50:41;;;;;;;;;;;;;;;;;;1027503;28;19972;-77
2023/01/08 00:51:12;;;;;;;;;;;;;;;;;;1027376;28;19940;-77
2023/01/08 00:51:43;;;;;;;;;;;;;;;;;;1030904;28;19914;-78
2023/01/08 00:52:14;;;;;;;;;;;;;;;;;;1031720;28;19910;-78
2023/01/08 00:52:44;;;;;;;;;;;;;;;;;;1034675;28;19913;-78
2023/01/08 00:53:15;;;;;;;;;;;;;;;;;;1027951;28;19961;-77
2023/01/08 00:53:46;;;;;;;;;;;;;;;;;;1031538;28;19921;-77
2023/01/08 00:54:17;;;;;;;;;;;;;;;;;;1031946;28;20275;-77
2023/01/08 00:54:48;;;;;;;;;;;;;;;;;;1031394;28;20017;-77
2023/01/08 00:55:19;;;;;;;;;;;;;;;;;;1031581;28;19914;-78
2023/01/08 00:55:50;;;;;;;;;;;;;;;;;;1031601;28;20000;-77
2023/01/08 00:56:21;;;;;;;;;;;;;;;;;;1031617;28;20356;-77
2023/01/08 00:56:52;;;;;;;;;;;;;;;;;;1027824;28;20014;-77
2023/01/08 00:57:22;;;;;;;;;;;;;;;;;;1031629;28;20009;-78
2023/01/08 00:57:53;;;;;;;;;;;;;;;;;;1027014;28;20008;-77
2023/01/08 00:58:24;;;;;;;;;;;;;;;;;;1027123;28;19917;-77
2023/01/08 00:58:55;;;;;;;;;;;;;;;;;;1031627;28;20008;-77
2023/01/08 00:59:26;;;;;;;;;;;;;;;;;;1031579;28;19913;-78
2023/01/08 00:59:57;;;;;;;;;;;;;;;;;;1032079;28;19914;-78
2023/01/08 01:00:28;;;;;;;;;;;;;;;;;;1031669;28;19949;-76
2023/01/08 01:00:59;;;;;;;;;;;;;;;;;;1027675;28;19914;-78
2023/01/08 01:01:29;;;;;;;;;;;;;;;;;;1027293;28;19914;-76
2023/01/08 01:02:00;;;;;;;;;;;;;;;;;;1027850;28;19953;-76
2023/01/08 01:02:31;;;;;;;;;;;;;;;;;;1031873;28;20380;-77
2023/01/08 01:03:02;;;;;;;;;;;;;;;;;;1035592;28;20016;-77
2023/01/08 01:03:33;;;;;;;;;;;;;;;;;;1031632;28;19914;-77
2023/01/08 01:04:04;;;;;;;;;;;;;;;;;;1035711;28;19920;-77
2023/01/08 01:04:35;;;;;;;;;;;;;;;;;;1035619;28;19937;-77
2023/01/08 01:05:06;;;;;;;;;;;;;;;;;;1031466;28;19922;-78
2023/01/08 01:05:37;;;;;;;;;;;;;;;;;;1027775;28;20005;-76
2023/01/08 01:06:08;;;;;;;;;;;;;;;;;;1027712;28;19960;-77
2023/01/08 01:06:39;;;;;;;;;;;;;;;;;;1027871;28;20001;-78
2023/01/08 01:07:09;;;;;;;;;;;;;;;;;;1031594;28;19910;-77
2023/01/08 01:07:41;;;;;;;;;;;;;;;;;;1032081;28;20469;-77
2023/01/08 01:08:12;;;;;;;;;;;;;;;;;;1031382;28;19910;-77
2023/01/08 01:08:43;;;;;;;;;;;;;;;;;;1031627;28;19920;-77
2023/01/08 01:09:14;;;;;;;;;;;;;;;;;;1031550;28;19953;-77
2023/01/08 01:09:45;;;;;;;;;;;;;;;;;;1027543;28;19953;-76
2023/01/08 01:10:16;;;;;;;;;;;;;;;;;;1027470;28;19910;-77
2023/01/08 01:10:46;;;;;;;;;;;;;;;;;;1027901;28;19992;-77
2023/01/08 01:11:17;;;;;;;;;;;;;;;;;;1027898;28;20005;-76
2023/01/08 01:11:48;;;;;;;;;;;;;;;;;;1035157;28;19909;-77
2023/01/08 01:12:19;;;;;;;;;;;;;;;;;;1031503;28;20537;-76
2023/01/08 01:12:50;;;;;;;;;;;;;;;;;;1027545;28;19921;-77
2023/01/08 01:13:21;;;;;;;;;;;;;;;;;;1027659;28;20407;-77
2023/01/08 01:13:52;;;;;;;;;;;;;;;;;;1027521;28;19997;-76
2023/01/08 01:14:22;;;;;;;;;;;;;;;;;;1031628;28;19917;-76
2023/01/08 01:14:53;;;;;;;;;;;;;;;;;;1035624;28;19918;-77
2023/01/08 01:15:24;;;;;;;;;;;;;;;;;;1031549;28;20012;-77
2023/01/08 01:15:55;;;;;;;;;;;;;;;;;;1027652;28;19922;-77
2023/01/08 01:16:26;;;;;;;;;;;;;;;;;;1027337;28;20265;-78
2023/01/08 01:16:57;;;;;;;;;;;;;;;;;;1027601;28;19988;-77
2023/01/08 01:17:28;;;;;;;;;;;;;;;;;;1031683;28;20228;-78
2023/01/08 01:17:59;;;;;;;;;;;;;;;;;;1035161;28;20004;-77
2023/01/08 01:18:29;;;;;;;;;;;;;;;;;;1028012;28;19914;-76
2023/01/08 01:19:00;;;;;;;;;;;;;;;;;;1027532;28;20094;-77
2023/01/08 01:19:31;;;;;;;;;;;;;;;;;;1027534;28;19950;-77
2023/01/08 01:20:02;;;;;;;;;;;;;;;;;;1027782;28;19914;-77
2023/01/08 01:20:33;;;;;;;;;;;;;;;;;;1027732;28;19910;-77
2023/01/08 01:21:04;;;;;;;;;;;;;;;;;;1031711;28;19914;-76
2023/01/08 01:21:35;;;;;;;;;;;;;;;;;;1031491;28;19921;-77
2023/01/08 01:22:06;;;;;;;;;;;;;;;;;;1031405;28;19913;-77
2023/01/08 01:22:37;;;;;;;;;;;;;;;;;;1031887;28;20297;-77
2023/01/08 01:23:09;;;;;;;;;;;;;;;;;;1031481;28;19920;-77
2023/01/08 01:23:39;;;;;;;;;;;;;;;;;;1031675;28;19952;-78
2023/01/08 01:24:11;;;;;;;;;;;;;;;;;;1031421;28;19936;-78
2023/01/08 01:24:42;;;;;;;;;;;;;;;;;;1031790;28;20388;-77
2023/01/08 01:25:13;;;;;;;;;;;;;;;;;;1031230;28;20427;-77
2023/01/08 01:25:44;;;;;;;;;;;;;;;;;;1031505;28;19914;-78
2023/01/08 01:26:15;;;;;;;;;;;;;;;;;;1031711;28;19947;-77
2023/01/08 01:26:46;;;;;;;;;;;;;;;;;;1031540;28;19914;-78
2023/01/08 01:27:17;;;;;;;;;;;;;;;;;;1031805;28;19949;-78
2023/01/08 01:27:47;;;;;;;;;;;;;;;;;;1031382;28;19930;-78
2023/01/08 01:28:18;;;;;;;;;;;;;;;;;;1031633;28;19910;-77
2023/01/08 01:28:49;;;;;;;;;;;;;;;;;;1027576;28;20008;-78
2023/01/08 01:29:20;;;;;;;;;;;;;;;;;;1023735;28;19910;-78
2023/01/08 01:29:51;;;;;;;;;;;;;;;;;;1023514;29;19973;-78
2023/01/08 01:30:22;;;;;;;;;;;;;;;;;;1023527;28;20011;-78
2023/01/08 01:30:53;;;;;;;;;;;;;;;;;;1023718;28;19938;-78
2023/01/08 01:31:24;;;;;;;;;;;;;;;;;;1028007;28;20774;-78
2023/01/08 01:31:55;;;;;;;;;;;;;;;;;;1030985;28;20540;-78
2023/01/08 01:32:25;;;;;;;;;;;;;;;;;;1031735;28;19910;-78
2023/01/08 01:32:56;;;;;;;;;;;;;;;;;;1031563;28;19906;-77
2023/01/08 01:33:27;;;;;;;;;;;;;;;;;;1027387;28;19985;-78
2023/01/08 01:33:58;;;;;;;;;;;;;;;;;;1023748;29;19910;-78
2023/01/08 01:34:29;;;;;;;;;;;;;;;;;;1023841;28;19997;-77
2023/01/08 01:35:00;;;;;;;;;;;;;;;;;;1027738;28;19910;-78
2023/01/08 01:35:31;;;;;;;;;;;;;;;;;;1033230;28;20001;-77
2023/01/08 01:36:02;;;;;;;;;;;;;;;;;;1031817;28;19941;-79
2023/01/08 01:36:32;;;;;;;;;;;;;;;;;;1031737;28;19909;-78
2023/01/08 01:37:04;;;;;;;;;;;;;;;;;;1031491;28;19918;-77
2023/01/08 01:37:35;;;;;;;;;;;;;;;;;;1031599;28;20658;-78
2023/01/08 01:38:05;;;;;;;;;;;;;;;;;;1027548;28;20684;-78
2023/01/08 01:38:36;;;;;;;;;;;;;;;;;;1031572;28;19910;-78
2023/01/08 01:39:07;;;;;;;;;;;;;;;;;;1028430;28;20001;-77
2023/01/08 01:39:38;;;;;;;;;;;;;;;;;;1027590;28;19946;-77
2023/01/08 01:40:09;;;;;;;;;;;;;;;;;;1031253;28;19913;-77
2023/01/08 01:40:40;;;;;;;;;;;;;;;;;;1023189;28;20381;-78
2023/01/08 01:41:11;;;;;;;;;;;;;;;;;;1027403;28;20000;-78
2023/01/08 01:41:41;;;;;;;;;;;;;;;;;;1027623;28;19941;-77
2023/01/08 01:42:38;;;;;;;;;;;;;;;;;;1027560;28;19906;-78
2023/01/08 01:43:03;;;;;;;;;;;;;;;;;;1031161;28;19914;-76
2023/01/08 01:43:34;;;;;;;;;;;;;;;;;;1031720;28;19957;-77
2023/01/08 01:44:05;;;;;;;;;;;;;;;;;;1031780;28;19974;-77
2023/01/08 01:44:36;;;;;;;;;;;;;;;;;;1031514;28;19910;-77
2023/01/08 01:45:07;;;;;;;;;;;;;;;;;;1031348;28;19905;-78
2023/01/08 01:45:37;;;;;;;;;;;;;;;;;;1031360;28;19913;-78
2023/01/08 01:46:08;;;;;;;;;;;;;;;;;;1031394;28;19933;-78
2023/01/08 01:46:39;;;;;;;;;;;;;;;;;;1031624;28;19945;-77
2023/01/08 01:47:10;;;;;;;;;;;;;;;;;;1026332;28;19953;-78
2023/01/08 01:47:41;;;;;;;;;;;;;;;;;;1028401;28;20005;-78
2023/01/08 01:48:12;;;;;;;;;;;;;;;;;;1027297;28;20518;-78
2023/01/08 01:48:43;;;;;;;;;;;;;;;;;;1023548;29;20005;-78
2023/01/08 01:49:13;;;;;;;;;;;;;;;;;;1023896;28;20439;-78
2023/01/08 01:49:44;;;;;;;;;;;;;;;;;;1027722;28;19910;-78
2023/01/08 01:50:15;;;;;;;;;;;;;;;;;;1031547;28;20010;-77
2023/01/08 01:50:46;;;;;;;;;;;;;;;;;;1031352;28;19918;-78
2023/01/08 01:51:17;;;;;;;;;;;;;;;;;;1031401;28;20518;-77
2023/01/08 01:51:48;;;;;;;;;;;;;;;;;;1031787;28;19916;-78
2023/01/08 01:52:21;;;;;;;;;;;;;;;;;;1031709;28;20512;-78
2023/01/08 01:52:52;;;;;;;;;;;;;;;;;;1029446;28;19964;-78
2023/01/08 01:53:22;;;;;;;;;;;;;;;;;;1027660;28;19946;-81
2023/01/08 01:53:53;;;;;;;;;;;;;;;;;;1027750;28;19924;-78
2023/01/08 01:54:24;;;;;;;;;;;;;;;;;;1028342;28;19914;-77
2023/01/08 01:54:55;;;;;;;;;;;;;;;;;;1031307;28;20624;-78
2023/01/08 01:55:26;;;;;;;;;;;;;;;;;;1031412;28;19997;-78
2023/01/08 01:55:57;;;;;;;;;;;;;;;;;;1027208;28;20293;-78
2023/01/08 01:56:28;;;;;;;;;;;;;;;;;;1022818;28;20389;-78
2023/01/08 01:56:59;;;;;;;;;;;;;;;;;;1023762;29;19910;-78
2023/01/08 01:57:30;;;;;;;;;;;;;;;;;;1023504;28;19914;-77
2023/01/08 01:58:00;;;;;;;;;;;;;;;;;;1029879;28;19914;-78
2023/01/08 01:58:31;;;;;;;;;;;;;;;;;;1031443;28;19920;-78
2023/01/08 01:59:02;;;;;;;;;;;;;;;;;;1031253;28;19941;-78
2023/01/08 01:59:33;;;;;;;;;;;;;;;;;;1031428;28;19910;-78
2023/01/08 02:00:04;;;;;;;;;;;;;;;;;;1031487;28;20416;-78
2023/01/08 02:00:35;;;;;;;;;;;;;;;;;;1031609;28;19925;-77
2023/01/08 02:01:06;;;;;;;;;;;;;;;;;;1031048;28;19948;-78
2023/01/08 02:01:36;;;;;;;;;;;;;;;;;;1031576;28;20371;-78
2023/01/08 02:02:07;;;;;;;;;;;;;;;;;;1031876;28;19914;-78
2023/01/08 02:02:38;;;;;;;;;;;;;;;;;;1031937;28;19910;-79
2023/01/08 02:03:09;;;;;;;;;;;;;;;;;;1031683;28;21527;-78
2023/01/08 02:03:40;;;;;;;;;;;;;;;;;;1031229;28;19914;-79
2023/01/08 02:04:11;;;;;;;;;;;;;;;;;;1031365;28;19914;-78
2023/01/08 02:04:42;;;;;;;;;;;;;;;;;;1027283;28;20404;-78
2023/01/08 02:05:13;;;;;;;;;;;;;;;;;;1027509;28;20013;-78
2023/01/08 02:05:43;;;;;;;;;;;;;;;;;;1031312;28;19961;-78
2023/01/08 02:06:15;;;;;;;;;;;;;;;;;;1031341;28;19922;-77
2023/01/08 02:06:46;;;;;;;;;;;;;;;;;;1031680;28;20001;-79
2023/01/08 02:07:17;;;;;;;;;;;;;;;;;;1031415;28;19914;-78
2023/01/08 02:07:47;;;;;;;;;;;;;;;;;;1031445;28;20324;-78
2023/01/08 02:08:18;;;;;;;;;;;;;;;;;;1031279;28;19906;-78
2023/01/08 02:08:49;;;;;;;;;;;;;;;;;;1031210;28;20355;-78
2023/01/08 02:09:20;;;;;;;;;;;;;;;;;;1031566;28;19937;-78
2023/01/08 02:09:51;;;;;;;;;;;;;;;;;;1031047;28;20352;-78
2023/01/08 02:10:22;;;;;;;;;;;;;;;;;;1027187;28;19921;-78
2023/01/08 02:10:53;;;;;;;;;;;;;;;;;;1023297;29;20369;-77
2023/01/08 02:11:23;;;;;;;;;;;;;;;;;;1023386;28;19914;-78
2023/01/08 02:13:00;;;;;;;;;;;;;;;;;;1018559;29;19943;-78
2023/01/08 02:13:31;;;;;;;;;;;;;;;;;;1016412;29;19993;-78
2023/01/08 02:14:02;;;;;;;;;;;;;;;;;;1016996;29;19914;-77
2023/01/08 02:14:33;;;;;;;;;;;;;;;;;;1015372;29;20009;-78
2023/01/08 02:15:04;;;;;;;;;;;;;;;;;;1018060;29;19915;-78
2023/01/08 02:15:35;;;;;;;;;;;;;;;;;;1022579;28;19993;-78
2023/01/08 02:16:06;;;;;;;;;;;;;;;;;;1027426;28;19969;-79
2023/01/08 02:16:36;;;;;;;;;;;;;;;;;;1027304;28;20009;-78
2023/01/08 02:17:07;;;;;;;;;;;;;;;;;;1027713;28;19906;-78
2023/01/08 02:17:38;;;;;;;;;;;;;;;;;;1027905;28;19945;-79
2023/01/08 02:18:09;;;;;;;;;;;;;;;;;;1031269;28;20399;-78
2023/01/08 02:18:40;;;;;;;;;;;;;;;;;;1027649;28;19910;-78
2023/01/08 02:19:11;;;;;;;;;;;;;;;;;;1027685;28;20309;-79
2023/01/08 02:19:42;;;;;;;;;;;;;;;;;;1031788;28;19906;-78
2023/01/08 02:20:12;;;;;;;;;;;;;;;;;;1028560;28;20020;-79
2023/01/08 02:21:03;;;;;;;;;;;;;;;;;;1027688;28;19921;-79
2023/01/08 02:21:34;;;;;;;;;;;;;;;;;;1028100;28;19907;-78
2023/01/08 02:22:05;;;;;;;;;;;;;;;;;;1031575;28;19910;-79
2023/01/08 02:22:36;;;;;;;;;;;;;;;;;;1031899;28;19906;-79
2023/01/08 02:23:07;;;;;;;;;;;;;;;;;;1031590;28;20276;-79
2023/01/08 02:23:38;;;;;;;;;;;;;;;;;;1028441;28;19956;-78
2023/01/08 02:24:09;;;;;;;;;;;;;;;;;;1031069;28;19906;-79
2023/01/08 02:24:39;;;;;;;;;;;;;;;;;;1031783;28;19920;-79
2023/01/08 02:25:10;;;;;;;;;;;;;;;;;;1027563;28;20000;-79
2023/01/08 02:25:41;;;;;;;;;;;;;;;;;;1027863;28;19910;-78
2023/01/08 02:26:12;;;;;;;;;;;;;;;;;;1031439;28;19906;-78
2023/01/08 02:26:43;;;;;;;;;;;;;;;;;;1031838;28;20004;-78
2023/01/08 02:27:14;;;;;;;;;;;;;;;;;;1031430;28;19913;-78
2023/01/08 02:27:45;;;;;;;;;;;;;;;;;;1031745;28;20735;-78
2023/01/08 02:28:16;;;;;;;;;;;;;;;;;;1027394;28;19934;-79
2023/01/08 02:28:47;;;;;;;;;;;;;;;;;;1027916;28;20562;-78
2023/01/08 02:29:17;;;;;;;;;;;;;;;;;;1027730;28;20385;-79
2023/01/08 02:29:48;;;;;;;;;;;;;;;;;;1027989;28;19906;-78
2023/01/08 02:30:19;;;;;;;;;;;;;;;;;;1031540;28;19906;-78
2023/01/08 02:30:50;;;;;;;;;;;;;;;;;;1031674;28;20418;-78
2023/01/08 02:31:21;;;;;;;;;;;;;;;;;;1035759;28;19949;-78
2023/01/08 02:31:52;;;;;;;;;;;;;;;;;;1034037;28;20437;-78
2023/01/08 02:32:23;;;;;;;;;;;;;;;;;;1031292;28;20061;-78
2023/01/08 02:32:54;;;;;;;;;;;;;;;;;;1027798;28;19953;-79
2023/01/08 02:33:24;;;;;;;;;;;;;;;;;;1024074;28;19906;-78
2023/01/08 02:33:55;;;;;;;;;;;;;;;;;;1035200;28;19905;-79
2023/01/08 02:34:27;;;;;;;;;;;;;;;;;;1027641;28;19906;-78
2023/01/08 02:34:58;;;;;;;;;;;;;;;;;;1027462;28;20420;-79
2023/01/08 02:35:29;;;;;;;;;;;;;;;;;;1030417;28;19929;-79
2023/01/08 02:35:59;;;;;;;;;;;;;;;;;;1031779;28;19906;-79
2023/01/08 02:36:30;;;;;;;;;;;;;;;;;;1032096;28;20358;-78
2023/01/08 02:37:01;;;;;;;;;;;;;;;;;;1030693;28;19910;-79
2023/01/08 02:37:32;;;;;;;;;;;;;;;;;;1029748;28;20044;-78
2023/01/08 02:38:03;;;;;;;;;;;;;;;;;;1031865;28;20400;-80
2023/01/08 02:38:34;;;;;;;;;;;;;;;;;;1031696;28;19915;-78
2023/01/08 02:39:05;;;;;;;;;;;;;;;;;;1031571;28;20836;-78
2023/01/08 02:39:35;;;;;;;;;;;;;;;;;;1031677;28;19945;-78
2023/01/08 02:40:06;;;;;;;;;;;;;;;;;;1031437;28;20281;-78
2023/01/08 02:40:37;;;;;;;;;;;;;;;;;;1027745;28;20012;-78
2023/01/08 02:41:08;;;;;;;;;;;;;;;;;;1027710;28;20372;-79
2023/01/08 02:41:39;;;;;;;;;;;;;;;;;;1027718;28;19918;-78
2023/01/08 02:42:10;;;;;;;;;;;;;;;;;;1029574;28;20448;-79
2023/01/08 02:42:41;;;;;;;;;;;;;;;;;;1031684;28;19910;-80
2023/01/08 02:43:11;;;;;;;;;;;;;;;;;;1031742;28;19917;-79
2023/01/08 02:43:42;;;;;;;;;;;;;;;;;;1031532;28;19939;-78
2023/01/08 02:44:13;;;;;;;;;;;;;;;;;;1034699;28;19909;-79
2023/01/08 02:44:44;;;;;;;;;;;;;;;;;;1035700;28;19968;-79
2023/01/08 02:45:15;;;;;;;;;;;;;;;;;;1036120;28;19981;-79
2023/01/08 02:45:46;;;;;;;;;;;;;;;;;;1032294;28;20481;-79
2023/01/08 02:46:17;;;;;;;;;;;;;;;;;;1031513;28;20004;-78
2023/01/08 02:46:48;;;;;;;;;;;;;;;;;;1031700;28;20309;-79
2023/01/08 02:47:19;;;;;;;;;;;;;;;;;;1027593;28;19914;-79
2023/01/08 02:47:49;;;;;;;;;;;;;;;;;;1027896;28;20702;-78
2023/01/08 02:48:20;;;;;;;;;;;;;;;;;;1031817;28;19988;-79
2023/01/08 02:48:51;;;;;;;;;;;;;;;;;;1031816;28;19952;-78
2023/01/08 02:49:22;;;;;;;;;;;;;;;;;;1032076;28;20344;-79
2023/01/08 02:49:53;;;;;;;;;;;;;;;;;;1031701;28;19910;-79
2023/01/08 02:50:24;;;;;;;;;;;;;;;;;;1031720;28;19910;-79
2023/01/08 02:50:55;;;;;;;;;;;;;;;;;;1031680;28;19988;-79
2023/01/08 02:51:25;;;;;;;;;;;;;;;;;;1031591;28;19940;-79
2023/01/08 02:51:56;;;;;;;;;;;;;;;;;;1027792;28;19911;-79
2023/01/08 02:52:27;;;;;;;;;;;;;;;;;;1031568;28;19906;-78
2023/01/08 02:52:58;;;;;;;;;;;;;;;;;;1031705;28;19914;-78
2023/01/08 02:53:29;;;;;;;;;;;;;;;;;;1031757;28;19969;-78
2023/01/08 02:54:00;;;;;;;;;;;;;;;;;;1031985;28;19910;-78
2023/01/08 02:54:31;;;;;;;;;;;;;;;;;;1031495;28;19953;-78
2023/01/08 02:55:02;;;;;;;;;;;;;;;;;;1031538;28;19910;-78
2023/01/08 02:55:33;;;;;;;;;;;;;;;;;;1027705;28;20842;-79
2023/01/08 02:56:04;;;;;;;;;;;;;;;;;;1027757;28;19911;-79
2023/01/08 02:56:35;;;;;;;;;;;;;;;;;;1027652;28;19906;-78
2023/01/08 02:57:06;;;;;;;;;;;;;;;;;;1027962;28;19910;-79
2023/01/08 02:57:37;;;;;;;;;;;;;;;;;;1027730;28;19950;-79
2023/01/08 02:58:07;;;;;;;;;;;;;;;;;;1027902;28;20041;-78
2023/01/08 02:58:38;;;;;;;;;;;;;;;;;;1031760;28;19910;-79
2023/01/08 02:59:09;;;;;;;;;;;;;;;;;;1027793;28;19953;-79
2023/01/08 02:59:40;;;;;;;;;;;;;;;;;;1031579;28;20356;-78
2023/01/08 03:00:11;;;;;;;;;;;;;;;;;;1031657;28;19981;-79
2023/01/08 03:00:42;;;;;;;;;;;;;;;;;;1031976;28;20328;-78
2023/01/08 03:01:13;;;;;;;;;;;;;;;;;;1031514;28;19916;-79
2023/01/08 03:01:44;;;;;;;;;;;;;;;;;;1031896;28;20339;-79
2023/01/08 03:02:15;;;;;;;;;;;;;;;;;;1027713;28;20001;-79
2023/01/08 03:02:46;;;;;;;;;;;;;;;;;;1031592;28;20256;-79
2023/01/08 03:03:17;;;;;;;;;;;;;;;;;;1027721;28;19914;-79
2023/01/08 03:03:47;;;;;;;;;;;;;;;;;;1027423;28;19910;-79
2023/01/08 03:04:18;;;;;;;;;;;;;;;;;;1027503;28;20003;-79
2023/01/08 03:04:49;;;;;;;;;;;;;;;;;;1023425;28;19910;-78
2023/01/08 03:05:20;;;;;;;;;;;;;;;;;;1027696;28;20388;-79
2023/01/08 03:05:51;;;;;;;;;;;;;;;;;;1031821;28;19997;-78
2023/01/08 03:06:22;;;;;;;;;;;;;;;;;;1032887;28;19969;-78
2023/01/08 03:06:53;;;;;;;;;;;;;;;;;;1031065;28;20332;-78
2023/01/08 03:07:24;;;;;;;;;;;;;;;;;;1031929;28;19917;-78
2023/01/08 03:07:54;;;;;;;;;;;;;;;;;;1031734;28;19914;-78
2023/01/08 03:08:25;;;;;;;;;;;;;;;;;;1031981;28;20000;-78
2023/01/08 03:08:56;;;;;;;;;;;;;;;;;;1031751;28;20679;-78
2023/01/08 03:09:27;;;;;;;;;;;;;;;;;;1031889;28;19906;-78
2023/01/08 03:09:58;;;;;;;;;;;;;;;;;;1031632;28;19921;-77
2023/01/08 03:10:29;;;;;;;;;;;;;;;;;;1031472;28;20342;-78
2023/01/08 03:11:00;;;;;;;;;;;;;;;;;;1031565;28;19906;-78
2023/01/08 03:11:31;;;;;;;;;;;;;;;;;;1031759;28;19909;-77
2023/01/08 03:12:01;;;;;;;;;;;;;;;;;;1035846;28;19960;-78
2023/01/08 03:12:32;;;;;;;;;;;;;;;;;;1035890;28;19949;-78
2023/01/08 03:13:03;;;;;;;;;;;;;;;;;;1031437;28;19913;-77
2023/01/08 03:13:34;;;;;;;;;;;;;;;;;;1027999;28;19911;-79
2023/01/08 03:14:05;;;;;;;;;;;;;;;;;;1027702;28;19910;-80
2023/01/08 03:14:36;;;;;;;;;;;;;;;;;;1028001;28;19906;-79
2023/01/08 03:15:07;;;;;;;;;;;;;;;;;;1031886;28;19941;-79
2023/01/08 03:15:38;;;;;;;;;;;;;;;;;;1031515;28;19910;-78
2023/01/08 03:16:09;;;;;;;;;;;;;;;;;;1028193;28;19907;-79
2023/01/08 03:16:39;;;;;;;;;;;;;;;;;;1031791;28;20025;-79
2023/01/08 03:17:10;;;;;;;;;;;;;;;;;;1031516;28;19953;-79
2023/01/08 03:17:41;;;;;;;;;;;;;;;;;;1027847;28;19910;-79
2023/01/08 03:18:12;;;;;;;;;;;;;;;;;;1027533;28;19910;-78
2023/01/08 03:18:43;;;;;;;;;;;;;;;;;;1027964;28;19913;-79
2023/01/08 03:19:14;;;;;;;;;;;;;;;;;;1027729;28;19997;-79
2023/01/08 03:19:45;;;;;;;;;;;;;;;;;;1032011;28;19944;-78
2023/01/08 03:20:15;;;;;;;;;;;;;;;;;;1031474;28;19910;-79
2023/01/08 03:20:46;;;;;;;;;;;;;;;;;;1031717;28;20440;-79
2023/01/08 03:21:17;;;;;;;;;;;;;;;;;;1027940;28;19907;-79
2023/01/08 03:21:48;;;;;;;;;;;;;;;;;;1028145;28;20786;-79
2023/01/08 03:22:19;;;;;;;;;;;;;;;;;;1032519;28;19956;-78
2023/01/08 03:22:50;;;;;;;;;;;;;;;;;;1032667;28;19996;-79
2023/01/08 03:23:21;;;;;;;;;;;;;;;;;;1035050;28;19938;-79
2023/01/08 03:23:52;;;;;;;;;;;;;;;;;;1032624;28;19949;-79
2023/01/08 03:24:23;;;;;;;;;;;;;;;;;;1032247;28;19913;-79
2023/01/08 03:24:53;;;;;;;;;;;;;;;;;;1028197;28;20671;-79
2023/01/08 03:25:24;;;;;;;;;;;;;;;;;;1028400;28;19918;-79
2023/01/08 03:25:55;;;;;;;;;;;;;;;;;;1028645;28;20357;-79
2023/01/08 03:26:26;;;;;;;;;;;;;;;;;;1033110;28;19910;-80
2023/01/08 03:26:57;;;;;;;;;;;;;;;;;;1036384;28;19955;-80
2023/01/08 03:27:28;;;;;;;;;;;;;;;;;;1032474;28;20577;-79
2023/01/08 03:27:59;;;;;;;;;;;;;;;;;;1032697;28;20001;-79
2023/01/08 03:28:31;;;;;;;;;;;;;;;;;;1029660;28;20296;-78
2023/01/08 03:29:02;;;;;;;;;;;;;;;;;;1029261;28;20361;-79
2023/01/08 03:29:33;;;;;;;;;;;;;;;;;;1032530;28;20442;-78
2023/01/08 03:30:04;;;;;;;;;;;;;;;;;;1028337;28;19934;-78
2023/01/08 03:30:35;;;;;;;;;;;;;;;;;;1028563;28;19910;-81
2023/01/08 03:31:06;;;;;;;;;;;;;;;;;;1032424;28;19910;-79
2023/01/08 03:31:36;;;;;;;;;;;;;;;;;;1032845;28;20004;-79
2023/01/08 03:32:07;;;;;;;;;;;;;;;;;;1032138;28;19964;-79
2023/01/08 03:32:38;;;;;;;;;;;;;;;;;;1032455;28;19910;-79